Time;durP1;ratioP1;P1;durP2;ratioP2;P2;SDS_P1;SDS_P2;PMS_P1;PMS_P2;Temp;Humidity;BMP_temperature;BMP_pressure;BME280_temperature;BME280_humidity;BME280_pressure;Samples;Min_cycle;Max_cycle;Signal;HPM_P1;HPM_P2
2021/05/12 00:01:47;;;;;;;;;2.00;2.00;;;;;20.82;48.34;97631.25;4933064;28;102879;-75
2021/05/12 00:04:14;;;;;;;;;3.67;3.67;;;;;20.82;48.66;97625.75;4922774;28;105547;-75
2021/05/12 00:06:41;;;;;;;;;2.67;1.67;;;;;20.81;48.17;97627.69;4920116;28;104652;-75
2021/05/12 00:09:08;;;;;;;;;3.00;2.67;;;;;20.80;48.31;97630.75;4918320;28;106940;-75
2021/05/12 00:11:35;;;;;;;;;3.00;2.00;;;;;20.80;48.30;97628.00;4928543;28;102534;-75
2021/05/12 00:14:02;;;;;;;;;2.00;2.00;;;;;20.78;48.12;97622.78;4916189;28;103739;-75
2021/05/12 00:16:30;;;;;;;;;1.67;1.67;;;;;20.79;48.36;97621.66;4926275;28;104408;-75
2021/05/12 00:19:00;;;;;;;;;3.00;3.00;;;;;20.79;48.64;97624.41;4907081;28;104232;-75
2021/05/12 00:21:52;;;;;;;;;3.00;2.00;;;;;20.78;48.44;97628.28;4929652;28;104144;-75
2021/05/12 00:24:24;;;;;;;;;2.00;2.00;;;;;20.78;48.25;97617.28;4876987;28;102817;-75
2021/05/12 00:27:00;;;;;;;;;4.00;2.67;;;;;20.79;48.62;97627.16;4933004;28;102658;-75
2021/05/12 00:29:34;;;;;;;;;4.00;3.00;;;;;20.78;48.55;97621.94;4928339;28;103602;-75
2021/05/12 00:32:09;;;;;;;;;3.00;3.00;;;;;20.77;48.24;97612.88;4920636;28;102776;-75
2021/05/12 00:34:43;;;;;;;;;3.00;3.00;;;;;20.76;48.28;97616.75;4929557;28;104107;-75
2021/05/12 00:37:20;;;;;;;;;2.33;2.33;;;;;20.77;48.82;97614.81;4921209;28;104150;-75
2021/05/12 00:39:53;;;;;;;;;4.67;2.67;;;;;20.77;48.33;97612.88;4926541;28;103180;-75
2021/05/12 00:42:30;;;;;;;;;2.33;2.00;;;;;20.77;48.59;97620.31;4926547;28;104074;-75
2021/05/12 00:45:07;;;;;;;;;2.00;2.00;;;;;20.75;48.45;97617.03;4919713;28;102197;-75
2021/05/12 00:47:40;;;;;;;;;4.00;3.00;;;;;20.75;48.25;97606.06;4924663;28;104240;-75
2021/05/12 00:50:15;;;;;;;;;2.00;2.00;;;;;20.76;48.73;97604.94;4928254;28;107918;-75
2021/05/12 00:52:47;;;;;;;;;2.00;2.00;;;;;20.75;48.33;97600.56;4906160;28;102927;-75
2021/05/12 00:55:23;;;;;;;;;3.67;3.00;;;;;20.74;48.66;97598.91;4921118;28;103183;-75
2021/05/12 00:57:59;;;;;;;;;3.00;3.00;;;;;20.73;48.68;97603.59;4931136;28;105737;-75
2021/05/12 01:00:32;;;;;;;;;3.00;3.00;;;;;20.73;48.59;97602.75;4914737;28;103087;-75
2021/05/12 01:03:06;;;;;;;;;3.00;3.00;;;;;20.74;48.59;97604.41;4905065;28;103400;-75
2021/05/12 01:05:38;;;;;;;;;2.67;2.67;;;;;20.72;48.69;97596.44;4911554;28;103895;-75
2021/05/12 01:08:12;;;;;;;;;4.00;4.00;;;;;20.71;48.72;97592.09;4883228;28;105039;-75
2021/05/12 01:10:47;;;;;;;;;3.00;3.00;;;;;20.72;48.42;97595.63;4893795;28;108397;-75
2021/05/12 01:13:19;;;;;;;;;3.00;3.00;;;;;20.71;48.81;97588.53;4894603;28;103162;-75
2021/05/12 01:15:52;;;;;;;;;3.67;3.67;;;;;20.70;48.69;97589.63;4896287;28;109402;-75
2021/05/12 01:18:27;;;;;;;;;3.00;3.00;;;;;20.70;48.73;97593.19;4919343;28;102692;-75
2021/05/12 01:21:03;;;;;;;;;3.00;2.67;;;;;20.70;48.29;97595.94;4915934;28;104235;-75
2021/05/12 01:23:44;;;;;;;;;3.67;3.00;;;;;20.70;48.73;97595.13;4918679;28;102791;-75
2021/05/12 01:26:23;;;;;;;;;3.00;3.00;;;;;20.68;48.78;97580.84;4920592;28;103161;-75
2021/05/12 01:28:58;;;;;;;;;2.67;2.67;;;;;20.68;48.87;97580.84;4858050;28;102697;-75
2021/05/12 01:31:44;;;;;;;;;4.00;3.00;;;;;20.67;48.75;97585.50;4935001;28;104597;-75
2021/05/12 01:34:24;;;;;;;;;4.00;4.00;;;;;20.66;48.49;97572.09;4924888;28;105830;-75
2021/05/12 01:36:57;;;;;;;;;3.00;3.00;;;;;20.66;48.36;97583.91;4865363;28;103293;-75
2021/05/12 01:39:32;;;;;;;;;3.33;2.67;;;;;20.67;48.45;97587.47;4934079;28;102593;-75
2021/05/12 01:42:07;;;;;;;;;2.00;2.00;;;;;20.65;48.83;97576.75;4927341;28;111856;-75
2021/05/12 01:44:39;;;;;;;;;3.00;2.33;;;;;20.65;48.55;97571.25;4909277;28;102474;-75
2021/05/12 01:47:15;;;;;;;;;3.00;3.00;;;;;20.65;48.51;97570.44;4912391;28;102563;-75
2021/05/12 01:49:52;;;;;;;;;3.00;2.33;;;;;20.66;48.49;97577.59;4938098;28;102332;-75
2021/05/12 01:52:28;;;;;;;;;4.00;4.00;;;;;20.65;48.72;97573.19;4848788;28;108169;-75
2021/05/12 01:55:00;;;;;;;;;2.00;1.00;;;;;20.65;48.68;97567.69;4938798;28;102974;-78
2021/05/12 01:57:44;;;;;;;;;2.33;2.33;;;;;20.64;49.01;97571.53;4936247;28;102326;-78
2021/05/12 02:00:25;;;;;;;;;3.00;3.00;;;;;20.63;48.78;97564.41;4924430;28;102448;-77
2021/05/12 02:02:57;;;;;;;;;3.00;3.00;;;;;20.63;48.87;97564.41;4862306;28;108446;-77
2021/05/12 02:05:33;;;;;;;;;3.00;3.00;;;;;20.62;48.73;97571.84;4930278;28;105599;-77
2021/05/12 02:08:11;;;;;;;;;3.33;3.33;;;;;20.61;48.52;97567.47;4940393;28;103761;-77
2021/05/12 02:10:51;;;;;;;;;2.00;2.00;;;;;20.62;48.63;97573.78;4917883;28;102224;-77
2021/05/12 02:13:26;;;;;;;;;3.00;3.00;;;;;20.61;48.78;97572.13;4929853;28;110636;-77
2021/05/12 02:16:06;;;;;;;;;3.00;3.00;;;;;20.61;48.43;97566.66;4921405;28;102385;-77
2021/05/12 02:18:38;;;;;;;;;2.33;2.00;;;;;20.61;48.52;97563.91;4931420;28;102739;-78
2021/05/12 02:21:12;;;;;;;;;4.00;3.67;;;;;20.61;48.57;97561.97;4927155;28;102637;-78
2021/05/12 02:23:48;;;;;;;;;3.00;2.67;;;;;20.60;48.80;97554.84;4927512;28;107970;-78
2021/05/12 02:26:24;;;;;;;;;2.00;2.00;;;;;20.60;48.94;97565.00;4922406;28;103013;-75
2021/05/12 02:28:57;;;;;;;;;3.00;3.00;;;;;20.60;48.58;97556.75;4876790;28;105112;-75
2021/05/12 02:31:33;;;;;;;;;3.00;2.00;;;;;20.59;48.65;97552.38;4932913;28;104037;-75
2021/05/12 02:34:09;;;;;;;;;2.00;2.00;;;;;20.59;49.00;97549.63;4936296;28;102959;-75
2021/05/12 02:36:42;;;;;;;;;3.00;2.67;;;;;20.58;48.53;97542.50;4918848;28;102128;-75
2021/05/12 02:39:18;;;;;;;;;3.67;3.67;;;;;20.58;48.61;97540.56;4908170;28;102182;-75
2021/05/12 02:41:51;;;;;;;;;3.00;3.00;;;;;20.56;48.94;97537.31;4896346;28;104392;-75
2021/05/12 02:44:27;;;;;;;;;2.33;2.00;;;;;20.56;48.65;97542.78;4906046;28;109013;-75
2021/05/12 02:47:02;;;;;;;;;3.00;3.00;;;;;20.56;48.72;97536.47;4906353;28;103602;-75
2021/05/12 02:49:35;;;;;;;;;2.00;2.00;;;;;20.57;48.92;97535.38;4905046;28;104119;-75
2021/05/12 02:52:11;;;;;;;;;1.67;1.67;;;;;20.56;49.10;97551.03;4914766;28;104216;-75
2021/05/12 02:54:44;;;;;;;;;2.67;2.67;;;;;20.55;49.01;97548.56;4912162;28;103108;-75
2021/05/12 02:57:22;;;;;;;;;3.00;2.67;;;;;20.55;48.92;97545.81;4901371;28;102752;-75
2021/05/12 02:59:54;;;;;;;;;3.33;3.00;;;;;20.53;48.67;97534.31;4916665;28;102819;-75
2021/05/12 03:02:21;;;;;;;;;3.00;2.00;;;;;20.55;48.81;97534.84;4916849;28;102477;-75
2021/05/12 03:04:48;;;;;;;;;2.67;2.33;;;;;20.53;48.81;97535.16;4894656;28;109216;-75
2021/05/12 03:07:15;;;;;;;;;2.33;2.33;;;;;20.54;49.07;97534.00;4919966;28;102818;-75
2021/05/12 03:09:42;;;;;;;;;3.33;2.00;;;;;20.53;49.13;97528.84;4911721;28;102120;-75
2021/05/12 03:12:09;;;;;;;;;2.67;2.67;;;;;20.53;48.80;97537.06;4901239;28;103140;-75
2021/05/12 03:14:37;;;;;;;;;4.00;4.00;;;;;20.52;48.74;97529.94;4917263;28;104110;-75
2021/05/12 03:17:04;;;;;;;;;2.00;2.00;;;;;20.52;48.89;97529.94;4898115;28;102196;-75
2021/05/12 03:19:31;;;;;;;;;3.00;3.00;;;;;20.52;48.84;97535.44;4903000;28;102940;-75
2021/05/12 03:21:58;;;;;;;;;3.00;3.00;;;;;20.51;48.95;97539.28;4923049;28;103761;-75
2021/05/12 03:24:25;;;;;;;;;2.00;2.00;;;;;20.51;49.06;97531.84;4907381;28;104217;-75
2021/05/12 03:26:53;;;;;;;;;3.00;3.00;;;;;20.49;48.84;97532.13;4898149;28;104112;-75
2021/05/12 03:29:21;;;;;;;;;1.67;1.33;;;;;20.51;48.74;97533.78;4918062;28;102862;-75
2021/05/12 03:31:48;;;;;;;;;1.67;1.33;;;;;20.51;48.84;97533.78;4919654;28;102362;-75
2021/05/12 03:34:15;;;;;;;;;2.33;2.33;;;;;20.50;48.78;97532.97;4903117;28;104143;-75
2021/05/12 03:36:42;;;;;;;;;2.33;2.33;;;;;20.49;48.94;97532.13;4912746;28;102226;-75
2021/05/12 03:39:09;;;;;;;;;2.33;2.33;;;;;20.49;49.00;97525.81;4925199;28;103996;-75
2021/05/12 03:41:36;;;;;;;;;2.00;2.00;;;;;20.48;48.72;97529.72;4933357;28;103964;-75
2021/05/12 03:44:04;;;;;;;;;4.67;3.67;;;;;20.48;48.99;97530.53;4916910;28;104339;-75
2021/05/12 03:46:31;;;;;;;;;2.00;2.00;;;;;20.48;48.61;97530.53;4925627;28;106071;-75
2021/05/12 03:48:59;;;;;;;;;2.00;2.00;;;;;20.48;48.68;97530.53;4926396;28;103195;-75
2021/05/12 03:51:27;;;;;;;;;3.00;2.00;;;;;20.47;49.05;97528.88;4923670;28;102491;-75
2021/05/12 03:53:54;;;;;;;;;2.00;2.00;;;;;20.47;48.87;97525.31;4931236;28;104078;-75
2021/05/12 03:56:21;;;;;;;;;2.00;2.00;;;;;20.47;48.87;97523.38;4929250;28;102911;-75
2021/05/12 03:58:48;;;;;;;;;3.00;3.00;;;;;20.45;48.90;97513.78;4931362;28;104150;-75
2021/05/12 04:01:15;;;;;;;;;3.00;2.00;;;;;20.46;49.11;97519.00;4914134;28;102216;-75
2021/05/12 04:03:42;;;;;;;;;2.00;2.00;;;;;20.47;49.12;97523.38;4919690;28;104139;-75
2021/05/12 04:06:10;;;;;;;;;2.00;2.00;;;;;20.46;48.81;97516.25;4942373;28;103219;-75
2021/05/12 04:08:37;;;;;;;;;2.67;2.33;;;;;20.46;48.92;97521.75;4934983;28;103807;-75
2021/05/12 04:11:04;;;;;;;;;2.33;2.00;;;;;20.46;49.14;97520.94;4921820;28;104274;-75
2021/05/12 04:13:32;;;;;;;;;2.00;2.00;;;;;20.47;49.07;97511.59;4927252;28;103797;-75
2021/05/12 04:15:59;;;;;;;;;2.00;2.00;;;;;20.46;49.20;97519.00;4921625;28;103735;-75
2021/05/12 04:18:27;;;;;;;;;2.00;2.00;;;;;20.47;49.14;97511.59;4919311;28;102171;-75
2021/05/12 04:20:54;;;;;;;;;3.33;3.33;;;;;20.46;48.68;97513.50;4925370;28;104105;-75
2021/05/12 04:23:21;;;;;;;;;3.00;3.00;;;;;20.47;48.86;97506.09;4919802;28;103642;-75
2021/05/12 04:25:51;;;;;;;;;2.00;2.00;;;;;20.45;49.16;97503.63;4919248;28;102740;-75
2021/05/12 04:28:18;;;;;;;;;1.00;1.00;;;;;20.47;48.96;97514.31;4928434;28;103054;-75
2021/05/12 04:30:45;;;;;;;;;2.00;2.00;;;;;20.45;49.00;97511.88;4922648;28;103173;-75
2021/05/12 04:33:12;;;;;;;;;2.00;2.00;;;;;20.45;48.84;97511.88;4934131;28;104228;-75
2021/05/12 04:35:39;;;;;;;;;1.67;1.67;;;;;20.46;48.81;97518.19;4932450;28;102175;-75
2021/05/12 04:38:07;;;;;;;;;2.00;2.00;;;;;20.45;48.87;97509.13;4923810;28;103118;-75
2021/05/12 04:40:34;;;;;;;;;2.67;2.67;;;;;20.46;48.79;97516.25;4924220;28;102444;-75
2021/05/12 04:43:01;;;;;;;;;3.00;2.67;;;;;20.45;49.00;97513.78;4929773;28;104241;-75
2021/05/12 04:45:29;;;;;;;;;2.00;2.00;;;;;20.45;48.85;97511.88;4913328;28;103665;-75
2021/05/12 04:47:56;;;;;;;;;2.00;1.00;;;;;20.45;48.81;97511.03;4923302;28;103694;-75
2021/05/12 04:50:25;;;;;;;;;2.00;2.00;;;;;20.42;48.83;97512.47;4923881;28;102665;-75
2021/05/12 04:52:52;;;;;;;;;2.00;2.00;;;;;20.43;49.09;97505.03;4923078;28;104147;-75
2021/05/12 04:55:20;;;;;;;;;3.00;3.00;;;;;20.45;49.08;97503.63;4930655;28;102431;-75
2021/05/12 04:57:47;;;;;;;;;2.00;2.00;;;;;20.44;48.83;97504.72;4930593;28;102114;-75
2021/05/12 05:00:15;;;;;;;;;2.33;2.00;;;;;20.43;48.89;97503.13;4931857;28;103171;-75
2021/05/12 05:02:42;;;;;;;;;1.67;1.33;;;;;20.45;48.85;97511.03;4923703;28;104159;-75
2021/05/12 05:05:11;;;;;;;;;2.00;2.00;;;;;20.45;48.90;97502.81;4932815;28;104067;-75
2021/05/12 05:07:39;;;;;;;;;3.00;2.00;;;;;20.44;48.91;97501.97;4927241;28;104514;-75
2021/05/12 05:10:06;;;;;;;;;2.00;2.00;;;;;20.43;48.91;97499.56;4923541;28;104474;-75
2021/05/12 05:12:34;;;;;;;;;3.00;2.67;;;;;20.43;48.98;97500.38;4942664;28;105032;-75
2021/05/12 05:15:01;;;;;;;;;3.00;3.00;;;;;20.45;48.80;97502.81;4916472;28;103927;-75
2021/05/12 05:17:29;;;;;;;;;2.33;2.33;;;;;20.45;48.79;97497.31;4923914;28;102288;-75
2021/05/12 05:19:58;;;;;;;;;3.00;3.00;;;;;20.43;49.18;97499.56;4932373;28;102261;-75
2021/05/12 05:22:27;;;;;;;;;2.33;2.33;;;;;20.44;48.67;97507.47;4928122;28;104151;-75
2021/05/12 05:24:55;;;;;;;;;1.33;1.33;;;;;20.43;48.81;97505.03;4946925;28;102530;-75
2021/05/12 05:27:23;;;;;;;;;2.00;2.00;;;;;20.44;48.81;97503.94;4930418;28;102560;-75
2021/05/12 05:29:51;;;;;;;;;2.00;2.00;;;;;20.44;48.80;97506.69;4945679;28;103729;-75
2021/05/12 05:32:18;;;;;;;;;3.00;2.00;;;;;20.43;49.00;97500.38;4940063;28;113703;-75
2021/05/12 05:34:45;;;;;;;;;3.33;2.67;;;;;20.44;49.08;97503.94;4947762;28;103875;-75
2021/05/12 05:37:12;;;;;;;;;2.00;2.00;;;;;20.43;49.20;97502.28;4941863;28;102278;-75
2021/05/12 05:39:40;;;;;;;;;2.00;2.00;;;;;20.43;49.03;97494.88;4945500;28;102206;-75
2021/05/12 05:42:09;;;;;;;;;2.00;2.00;;;;;20.44;48.76;97501.97;4953217;28;104306;-75
2021/05/12 05:44:38;;;;;;;;;3.00;2.33;;;;;20.45;48.67;97502.81;4937369;28;102245;-75
2021/05/12 05:47:06;;;;;;;;;2.67;2.00;;;;;20.46;48.70;97497.03;4944896;28;102571;-75
2021/05/12 05:49:35;;;;;;;;;2.00;2.00;;;;;20.44;48.69;97501.97;4943991;28;105887;-75
2021/05/12 05:52:03;;;;;;;;;2.00;2.00;;;;;20.46;49.06;97505.28;4937792;28;104093;-75
2021/05/12 05:54:30;;;;;;;;;2.00;2.00;;;;;20.47;49.16;97498.69;4929254;28;102162;-75
2021/05/12 05:57:04;;;;;;;;;3.00;3.00;;;;;20.46;48.80;97505.28;4932156;28;103480;-75
2021/05/12 05:59:32;;;;;;;;;2.00;2.00;;;;;20.46;48.74;97502.53;4936364;28;103578;-75
2021/05/12 06:02:00;;;;;;;;;1.67;1.67;;;;;20.48;48.82;97505.00;4923751;28;104426;-75
2021/05/12 06:04:27;;;;;;;;;2.00;2.00;;;;;20.48;49.06;97503.06;4937330;28;103235;-75
2021/05/12 06:06:55;;;;;;;;;2.33;2.33;;;;;20.48;48.82;97502.25;4930394;28;103344;-75
2021/05/12 06:09:23;;;;;;;;;2.00;2.00;;;;;20.49;48.69;97496.44;4944495;28;103287;-75
2021/05/12 06:11:51;;;;;;;;;2.00;2.00;;;;;20.49;48.72;97499.19;4947978;28;108982;-75
2021/05/12 06:14:20;;;;;;;;;2.00;2.00;;;;;20.49;49.15;97495.63;4932467;28;102116;-75
2021/05/12 06:16:47;;;;;;;;;2.00;2.00;;;;;20.49;48.82;97499.19;4945908;28;102118;-75
2021/05/12 06:19:15;;;;;;;;;3.00;3.00;;;;;20.49;49.15;97499.19;4937652;28;102295;-75
2021/05/12 06:21:42;;;;;;;;;3.67;3.00;;;;;20.51;48.78;97492.59;4941769;28;104208;-75
2021/05/12 06:24:09;;;;;;;;;2.00;2.00;;;;;20.50;49.02;97497.25;4936478;28;102394;-75
2021/05/12 06:26:37;;;;;;;;;3.00;2.67;;;;;20.51;48.79;97501.66;4932084;28;102225;-75
2021/05/12 06:29:05;;;;;;;;;2.00;2.00;;;;;20.51;49.10;97501.66;4947709;28;102598;-75
2021/05/12 06:31:33;;;;;;;;;2.00;2.00;;;;;20.52;49.14;97491.47;4924725;28;103590;-75
2021/05/12 06:34:01;;;;;;;;;2.33;2.00;;;;;20.52;49.18;97496.97;4944289;28;104428;-75
2021/05/12 06:36:29;;;;;;;;;3.00;2.00;;;;;20.53;49.14;97493.13;4946712;28;103045;-75
2021/05/12 06:39:05;;;;;;;;;2.00;2.00;;;;;20.53;49.29;97498.63;4944524;28;102821;-75
2021/05/12 06:41:33;;;;;;;;;2.00;2.00;;;;;20.54;48.72;97492.00;4925023;28;104250;-75
2021/05/12 06:44:00;;;;;;;;;2.67;2.00;;;;;20.54;48.57;97492.81;4942630;28;102535;-75
2021/05/12 06:46:27;;;;;;;;;3.00;3.00;;;;;20.55;48.85;97497.22;4929411;28;102216;-75
2021/05/12 06:48:54;;;;;;;;;2.00;2.00;;;;;20.54;48.92;97494.75;4937570;28;102631;-75
2021/05/12 06:51:21;;;;;;;;;2.00;2.00;;;;;20.55;48.64;97488.16;4944653;28;104241;-75
2021/05/12 06:53:49;;;;;;;;;3.33;3.00;;;;;20.55;48.75;97479.91;4928043;28;102386;-75
2021/05/12 06:56:16;;;;;;;;;1.33;1.33;;;;;20.56;48.67;97478.81;4924226;28;102222;-75
2021/05/12 06:58:43;;;;;;;;;3.67;3.00;;;;;20.57;49.15;97485.94;4944779;28;106785;-75
2021/05/12 07:01:13;;;;;;;;;3.00;3.00;;;;;20.56;48.76;97476.88;4929744;28;104128;-75
2021/05/12 07:03:40;;;;;;;;;3.00;2.00;;;;;20.57;49.10;97480.44;4932313;28;102405;-75
2021/05/12 07:06:10;;;;;;;;;4.00;2.00;;;;;20.57;49.10;97484.00;4950066;28;104523;-75
2021/05/12 07:08:37;;;;;;;;;2.67;2.00;;;;;20.58;48.87;97479.34;4948810;28;103788;-75
2021/05/12 07:11:06;;;;;;;;;2.00;2.00;;;;;20.58;48.78;97479.34;4922159;28;103595;-75
2021/05/12 07:13:33;;;;;;;;;2.67;2.67;;;;;20.59;48.61;97478.22;4942830;28;102095;-75
2021/05/12 07:16:01;;;;;;;;;4.00;3.00;;;;;20.60;48.65;97474.34;4939472;28;102577;-75
2021/05/12 07:18:29;;;;;;;;;3.00;3.00;;;;;20.59;48.62;97469.97;4939473;28;102425;-75
2021/05/12 07:20:56;;;;;;;;;3.67;3.00;;;;;20.59;48.89;97465.28;4942491;28;104190;-75
2021/05/12 07:23:24;;;;;;;;;3.00;2.67;;;;;20.61;48.93;97467.75;4947733;28;102447;-75
2021/05/12 07:25:51;;;;;;;;;2.33;2.00;;;;;20.62;48.68;97469.41;4940872;28;102321;-75
2021/05/12 07:28:19;;;;;;;;;2.00;2.00;;;;;20.61;48.84;97473.25;4946773;28;102562;-75
2021/05/12 07:30:47;;;;;;;;;2.00;2.00;;;;;20.63;48.51;97479.25;4949302;28;105208;-75
2021/05/12 07:33:19;;;;;;;;;3.00;2.00;;;;;20.63;48.71;97477.34;4934831;28;102537;-75
2021/05/12 07:35:47;;;;;;;;;3.00;2.00;;;;;20.64;49.11;97467.16;4941420;28;102620;-75
2021/05/12 07:38:14;;;;;;;;;3.00;2.00;;;;;20.64;48.99;97467.16;4950585;28;102208;-75
2021/05/12 07:40:41;;;;;;;;;3.00;2.00;;;;;20.64;48.99;97467.97;4940128;28;104244;-75
2021/05/12 07:43:09;;;;;;;;;3.00;2.00;;;;;20.64;48.99;97467.16;4926820;28;102623;-75
2021/05/12 07:45:37;;;;;;;;;2.00;2.00;;;;;20.65;49.16;97471.56;4945457;28;102264;-75
2021/05/12 07:48:06;;;;;;;;;4.00;2.00;;;;;20.66;48.90;97459.47;4934431;28;104356;-75
2021/05/12 07:50:34;;;;;;;;;4.00;4.00;;;;;20.66;49.05;97465.78;4932190;28;104204;-75
2021/05/12 07:53:03;;;;;;;;;2.00;2.00;;;;;20.66;48.68;97463.03;4939178;28;102198;-74
2021/05/12 07:55:30;;;;;;;;;4.00;4.00;;;;;20.66;49.01;97457.53;4931093;28;102552;-75
2021/05/12 07:57:58;;;;;;;;;3.33;3.00;;;;;20.68;48.72;97457.22;4932873;28;103476;-75
2021/05/12 08:00:25;;;;;;;;;4.00;3.33;;;;;20.67;49.05;97450.13;4918775;28;104140;-75
2021/05/12 08:02:52;;;;;;;;;2.33;2.33;;;;;20.69;48.82;97450.63;4939389;28;102437;-75
2021/05/12 08:05:19;;;;;;;;;4.00;3.00;;;;;20.69;48.98;97447.88;4925404;28;102226;-75
2021/05/12 08:07:47;;;;;;;;;3.00;2.67;;;;;20.70;48.88;97446.78;4936491;28;102254;-75
2021/05/12 08:10:14;;;;;;;;;3.33;3.00;;;;;20.70;48.62;97442.09;4942972;28;104117;-75
2021/05/12 08:12:41;;;;;;;;;3.00;3.00;;;;;20.71;48.70;97453.91;4922666;28;102113;-75
2021/05/12 08:15:09;;;;;;;;;4.00;3.00;;;;;20.72;48.57;97442.59;4930641;28;102103;-75
2021/05/12 08:17:36;;;;;;;;;2.00;2.00;;;;;20.71;48.54;97438.25;4941297;28;104844;-75
2021/05/12 08:20:04;;;;;;;;;1.00;1.00;;;;;20.72;48.79;97439.03;4931047;28;104025;-75
2021/05/12 08:22:31;;;;;;;;;3.00;3.00;;;;;20.74;48.92;97445.06;4933281;28;102300;-75
2021/05/12 08:24:58;;;;;;;;;2.00;2.00;;;;;20.73;48.83;97435.19;4932546;28;102518;-75
2021/05/12 08:27:25;;;;;;;;;2.67;2.67;;;;;20.75;48.55;97432.97;4930916;28;103304;-75
2021/05/12 08:29:55;;;;;;;;;2.33;2.33;;;;;20.75;48.91;97435.72;4934772;28;104128;-75
2021/05/12 08:32:22;;;;;;;;;4.33;4.00;;;;;20.75;48.69;97432.97;4944191;28;102749;-75
2021/05/12 08:34:49;;;;;;;;;2.00;2.00;;;;;20.76;48.54;97427.16;4936405;28;104505;-77
2021/05/12 08:37:17;;;;;;;;;4.00;2.00;;;;;20.78;48.90;97432.38;4932078;28;102722;-77
2021/05/12 08:39:44;;;;;;;;;2.00;2.00;;;;;20.77;48.54;97428.81;4955710;28;104355;-77
2021/05/12 08:42:12;;;;;;;;;2.00;2.00;;;;;20.78;48.98;97430.44;4938784;28;102750;-77
2021/05/12 08:44:39;;;;;;;;;2.67;2.00;;;;;20.79;48.89;97421.09;4918084;28;103299;-77
2021/05/12 08:47:09;;;;;;;;;2.00;2.00;;;;;20.79;48.73;97418.34;4939844;28;102481;-77
2021/05/12 08:49:36;;;;;;;;;3.00;3.00;;;;;20.79;48.87;97412.03;4943637;28;104863;-77
2021/05/12 08:52:03;;;;;;;;;2.33;2.00;;;;;20.80;49.11;97408.19;4923020;28;102432;-77
2021/05/12 08:54:31;;;;;;;;;2.67;2.67;;;;;20.81;48.93;97407.03;4938436;28;102105;-77
2021/05/12 08:56:58;;;;;;;;;3.00;3.00;;;;;20.80;48.50;97395.22;4932079;28;103930;-77
2021/05/12 08:59:25;;;;;;;;;2.67;2.67;;;;;20.82;49.01;97395.78;4930637;28;103894;-76
2021/05/12 09:01:52;;;;;;;;;3.33;2.00;;;;;20.82;48.46;97390.28;4938211;28;102150;-77
2021/05/12 09:04:19;;;;;;;;;2.67;2.67;;;;;20.83;48.90;97389.16;4944088;28;102536;-77
2021/05/12 09:06:47;;;;;;;;;3.00;3.00;;;;;20.83;48.54;97391.91;4922360;28;102697;-77
2021/05/12 09:09:14;;;;;;;;;2.00;2.00;;;;;20.85;48.52;97386.09;4928833;28;104089;-77
2021/05/12 09:11:42;;;;;;;;;2.00;2.00;;;;;20.85;48.83;97391.59;4946165;28;102390;-77
2021/05/12 09:14:36;;;;;;;;;2.00;2.00;;;;;20.84;49.00;97385.31;4929633;28;104420;-77
2021/05/12 09:17:03;;;;;;;;;2.00;2.00;;;;;20.87;48.68;97389.38;4868079;28;104699;-77
2021/05/12 09:19:31;;;;;;;;;3.67;3.00;;;;;20.85;48.59;97373.19;4934186;28;104063;-77
2021/05/12 09:22:02;;;;;;;;;3.00;3.00;;;;;20.87;48.68;97370.97;4931957;28;103630;-77
2021/05/12 09:24:40;;;;;;;;;2.00;2.00;;;;;20.88;48.71;97375.34;4944047;28;102224;-77
2021/05/12 09:27:14;;;;;;;;;3.00;2.00;;;;;20.89;48.77;97368.72;4941890;28;102188;-77
2021/05/12 09:29:54;;;;;;;;;2.00;2.00;;;;;20.90;48.86;97361.31;4935110;28;103880;-77
2021/05/12 09:32:21;;;;;;;;;3.00;2.33;;;;;20.90;48.95;97364.88;4926057;28;102098;-77
2021/05/12 09:35:01;;;;;;;;;2.00;2.00;;;;;20.91;48.93;97352.78;4934974;28;102242;-77
2021/05/12 09:37:35;;;;;;;;;4.00;3.00;;;;;20.91;48.74;97355.53;4935165;28;102441;-77
2021/05/12 09:40:03;;;;;;;;;2.33;2.33;;;;;20.92;48.96;97348.09;4933652;28;104137;-77
2021/05/12 09:42:30;;;;;;;;;2.67;2.00;;;;;20.93;48.48;97347.81;4928173;28;102204;-77
2021/05/12 09:45:16;;;;;;;;;2.00;2.00;;;;;20.94;48.91;97351.34;4932040;28;102414;-77
2021/05/12 09:47:48;;;;;;;;;2.00;2.00;;;;;20.94;48.94;97348.59;4936222;28;102628;-77
2021/05/12 09:50:23;;;;;;;;;2.00;2.00;;;;;20.96;48.49;97342.81;4920265;28;104040;-77
2021/05/12 09:53:00;;;;;;;;;1.00;0.00;;;;;20.96;48.82;97354.63;4940559;28;102545;-77
2021/05/12 09:55:47;;;;;;;;;2.00;2.00;;;;;20.96;48.54;97345.56;4928541;28;102047;-77
2021/05/12 09:58:18;;;;;;;;;2.00;2.00;;;;;20.97;48.66;97350.78;4929370;28;104909;-77
2021/05/12 10:00:47;;;;;;;;;3.33;3.33;;;;;20.98;48.52;97346.91;4928578;28;103984;-77
2021/05/12 10:03:15;;;;;;;;;3.00;2.00;;;;;20.98;48.47;97341.41;4941710;28;102180;-77
2021/05/12 10:06:04;;;;;;;;;3.00;2.67;;;;;20.99;48.84;97340.28;4923360;28;102597;-77
2021/05/12 10:08:33;;;;;;;;;2.00;2.00;;;;;21.01;48.59;97338.06;4879298;28;102643;-77
2021/05/12 10:11:07;;;;;;;;;2.00;2.00;;;;;21.02;48.88;97341.63;4949803;28;104144;-77
2021/05/12 10:13:35;;;;;;;;;2.33;1.33;;;;;21.03;48.85;97340.53;4951024;28;102764;-77
2021/05/12 10:16:05;;;;;;;;;6.00;3.00;;;;;21.03;48.59;97343.28;4947786;28;104703;-77
2021/05/12 10:18:32;;;;;;;;;2.67;2.67;;;;;21.04;48.41;97329.22;4949291;28;102095;-77
2021/05/12 10:21:01;;;;;;;;;3.00;2.33;;;;;21.05;48.49;97330.84;4945587;28;104016;-77
2021/05/12 10:23:28;;;;;;;;;2.67;2.67;;;;;21.06;48.91;97327.00;4945980;28;102777;-77
2021/05/12 10:25:56;;;;;;;;;1.67;1.67;;;;;21.06;48.50;97321.50;4945439;28;102759;-77
2021/05/12 10:28:23;;;;;;;;;3.00;3.00;;;;;21.08;48.82;97329.41;4919601;28;102785;-77
2021/05/12 10:30:54;;;;;;;;;2.33;2.33;;;;;21.09;48.90;97326.38;4919065;28;108244;-77
2021/05/12 10:33:46;;;;;;;;;3.00;3.00;;;;;21.11;48.26;97329.66;4944160;28;102824;-77
2021/05/12 10:36:20;;;;;;;;;1.33;1.33;;;;;21.11;48.78;97318.66;4881506;28;102505;-77
2021/05/12 10:38:47;;;;;;;;;3.67;3.00;;;;;21.12;48.32;97320.28;4931426;28;102265;-77
2021/05/12 10:41:47;;;;;;;;;3.00;3.00;;;;;21.13;48.47;97313.69;4933897;28;104494;-78
2021/05/12 10:44:23;;;;;;;;;2.00;2.00;;;;;21.14;48.58;97320.84;4876491;28;103115;-77
2021/05/12 10:47:07;;;;;;;;;3.00;3.00;;;;;21.15;48.85;97305.97;4928747;28;102094;-77
2021/05/12 10:49:35;;;;;;;;;2.67;2.67;;;;;21.16;48.48;97318.63;4868155;28;102727;-77
2021/05/12 10:52:06;;;;;;;;;1.00;1.00;;;;;21.17;48.46;97302.91;4927797;28;104119;-77
2021/05/12 10:54:44;;;;;;;;;3.00;3.00;;;;;21.17;48.57;97311.97;4937665;28;102437;-78
2021/05/12 10:57:31;;;;;;;;;2.00;2.00;;;;;21.19;48.25;97308.94;4933082;28;102506;-77
2021/05/12 10:59:58;;;;;;;;;2.00;2.00;;;;;21.19;48.59;97307.00;4918168;28;104327;-77
2021/05/12 11:02:50;;;;;;;;;2.33;2.00;;;;;21.21;48.24;97307.50;4946416;28;104153;-78
2021/05/12 11:05:18;;;;;;;;;3.00;2.00;;;;;21.21;48.51;97302.00;4874909;28;102235;-75
2021/05/12 11:08:14;;;;;;;;;2.00;2.00;;;;;21.21;48.79;97293.75;4929856;28;102354;-75
2021/05/12 11:11:03;;;;;;;;;2.33;2.33;;;;;21.22;48.37;97298.16;4874656;28;102714;-75
2021/05/12 11:13:34;;;;;;;;;3.00;3.00;;;;;21.24;48.29;97306.09;4933956;28;109124;-75
2021/05/12 11:16:03;;;;;;;;;2.00;2.00;;;;;21.24;48.55;97297.84;4931267;28;102691;-75
2021/05/12 11:18:36;;;;;;;;;1.33;1.33;;;;;21.24;48.36;97295.94;4936719;28;104709;-75
2021/05/12 11:21:20;;;;;;;;;3.00;3.00;;;;;21.24;48.37;97293.19;4925929;28;102524;-75
2021/05/12 11:24:09;;;;;;;;;2.00;2.00;;;;;21.25;48.46;97286.53;4945348;28;104009;-75
2021/05/12 11:32:03;;;;;;;;;3.00;2.00;;;;;21.26;48.53;97288.19;4939307;28;102694;-75
2021/05/12 11:34:31;;;;;;;;;2.00;2.00;;;;;21.26;48.60;97285.44;4938101;28;104325;-77
2021/05/12 11:37:09;;;;;;;;;3.00;3.00;;;;;21.27;48.68;97278.81;4928586;28;102445;-76
2021/05/12 11:39:52;;;;;;;;;2.00;2.00;;;;;21.28;48.49;97283.22;4938023;28;103105;-77
2021/05/12 11:42:30;;;;;;;;;2.00;2.00;;;;;21.28;48.36;97272.22;4933802;28;102647;-78
2021/05/12 11:45:07;;;;;;;;;2.67;2.67;;;;;21.29;48.36;97276.59;4944474;28;109386;-77
2021/05/12 11:47:36;;;;;;;;;3.00;2.00;;;;;21.29;48.89;97273.84;4864290;28;102584;-77